Time;durP1;ratioP1;P1;durP2;ratioP2;P2;SDS_P1;SDS_P2;PMS_P1;PMS_P2;Temp;Humidity;BMP_temperature;BMP_pressure;BME280_temperature;BME280_humidity;BME280_pressure;Samples;Min_cycle;Max_cycle;Signal;HPM_P1;HPM_P2
2023/08/27 00:00:28;;;;;;;4.63;2.72;;;16.60;99.90;;;;;;4903328;29;20067;-80
2023/08/27 00:02:54;;;;;;;5.28;2.47;;;16.60;99.90;;;;;;4900131;29;20119;-80
2023/08/27 00:05:19;;;;;;;6.07;2.80;;;16.60;99.90;;;;;;4903594;29;20016;-80
2023/08/27 00:07:45;;;;;;;3.85;2.60;;;16.60;99.90;;;;;;4901896;29;20416;-80
2023/08/27 00:10:10;;;;;;;4.95;2.70;;;16.60;99.90;;;;;;4899694;29;20037;-80
2023/08/27 00:12:36;;;;;;;5.22;2.83;;;16.60;99.90;;;;;;4904430;29;20032;-80
2023/08/27 00:15:03;;;;;;;6.97;2.85;;;16.60;99.90;;;;;;4901819;29;20036;-80
2023/08/27 00:17:29;;;;;;;4.68;2.80;;;16.60;99.90;;;;;;4901909;29;20131;-80
2023/08/27 00:19:54;;;;;;;5.75;2.70;;;16.60;99.90;;;;;;4899739;29;20028;-80
2023/08/27 00:22:20;;;;;;;6.40;2.47;;;16.60;99.90;;;;;;4901334;29;20028;-80
2023/08/27 00:24:45;;;;;;;5.10;2.70;;;16.60;99.90;;;;;;4901113;29;20036;-80
2023/08/27 00:27:11;;;;;;;7.13;3.25;;;16.60;99.90;;;;;;4902974;29;20514;-80
2023/08/27 00:29:36;;;;;;;6.45;2.83;;;16.60;99.90;;;;;;4901208;29;20566;-80
2023/08/27 00:32:02;;;;;;;4.90;2.50;;;16.60;99.90;;;;;;4901209;29;20029;-80
2023/08/27 00:34:32;;;;;;;4.60;2.70;;;16.60;99.90;;;;;;4903319;29;20032;-80
2023/08/27 00:36:59;;;;;;;4.60;2.30;;;16.60;99.90;;;;;;4901050;29;20084;-80
2023/08/27 00:39:25;;;;;;;4.97;2.40;;;16.70;99.90;;;;;;4900627;29;20028;-80
2023/08/27 00:41:50;;;;;;;3.63;2.58;;;16.70;99.90;;;;;;4900690;29;20037;-80
2023/08/27 00:44:16;;;;;;;6.25;3.05;;;16.70;99.90;;;;;;4901108;29;20145;-80
2023/08/27 00:46:42;;;;;;;8.55;2.83;;;16.70;99.90;;;;;;4899608;29;21081;-82
2023/08/27 00:49:08;;;;;;;6.70;2.40;;;16.70;99.90;;;;;;4898632;29;20084;-80
2023/08/27 00:51:35;;;;;;;5.97;2.50;;;16.70;99.90;;;;;;4898182;29;20032;-80
2023/08/27 00:54:01;;;;;;;3.30;2.58;;;16.70;99.90;;;;;;4898267;29;20032;-80
2023/08/27 00:56:26;;;;;;;6.53;2.50;;;16.70;99.90;;;;;;4900540;29;20028;-80
2023/08/27 00:58:52;;;;;;;5.38;2.40;;;16.60;99.90;;;;;;4900061;29;20084;-80
2023/08/27 01:01:20;;;;;;;3.60;2.53;;;16.60;99.90;;;;;;4899567;29;20116;-80
2023/08/27 01:03:46;;;;;;;4.75;2.13;;;16.60;99.90;;;;;;4901212;29;20024;-80
2023/08/27 01:06:12;;;;;;;5.97;2.33;;;16.70;99.90;;;;;;4900299;29;20051;-80
2023/08/27 01:09:10;;;;;;;6.22;2.75;;;16.60;99.90;;;;;;4899794;29;20036;-80
2023/08/27 01:11:35;;;;;;;4.18;2.70;;;16.60;99.90;;;;;;4899759;29;20050;-80
2023/08/27 01:14:07;;;;;;;6.78;2.38;;;16.60;99.90;;;;;;4899753;29;20091;-80
2023/08/27 01:16:35;;;;;;;4.97;2.42;;;16.70;99.90;;;;;;4899748;29;20436;-80
2023/08/27 01:19:03;;;;;;;5.35;2.50;;;16.70;99.90;;;;;;4900226;29;20036;-81
2023/08/27 01:21:29;;;;;;;5.72;2.75;;;16.60;99.90;;;;;;4900221;29;20024;-81
2023/08/27 01:23:54;;;;;;;5.45;2.53;;;16.60;99.90;;;;;;4901312;29;20420;-80
2023/08/27 01:26:44;;;;;;;5.38;2.67;;;16.60;99.90;;;;;;4898755;29;20032;-80
2023/08/27 01:29:38;;;;;;;5.55;2.67;;;16.60;99.90;;;;;;4902506;29;20036;-81
2023/08/27 01:32:10;;;;;;;6.97;2.72;;;16.50;99.90;;;;;;4902016;29;20036;-81
2023/08/27 01:34:37;;;;;;;5.22;2.70;;;16.50;99.90;;;;;;4903605;29;20364;-81
2023/08/27 01:37:03;;;;;;;5.32;2.63;;;16.50;99.90;;;;;;4899784;29;20484;-81
2023/08/27 01:39:29;;;;;;;3.83;2.20;;;16.50;99.90;;;;;;4899495;29;20492;-81
2023/08/27 01:41:55;;;;;;;5.20;2.72;;;16.50;99.90;;;;;;4902009;29;20024;-81
2023/08/27 01:44:20;;;;;;;5.18;2.70;;;16.50;99.90;;;;;;4902131;29;20032;-81
2023/08/27 01:46:46;;;;;;;4.78;2.63;;;16.40;99.90;;;;;;4899607;29;20028;-82
2023/08/27 01:49:11;;;;;;;5.10;2.80;;;16.40;99.90;;;;;;4899684;29;20559;-81
2023/08/27 01:51:37;;;;;;;5.50;3.00;;;16.40;99.90;;;;;;4900858;29;20095;-81
2023/08/27 01:54:02;;;;;;;8.13;2.83;;;16.40;99.90;;;;;;4899283;29;20264;-81
2023/08/27 01:56:28;;;;;;;5.38;3.00;;;16.40;99.90;;;;;;4902634;29;20095;-81
2023/08/27 01:58:53;;;;;;;3.80;2.33;;;16.40;99.90;;;;;;4900157;29;20043;-81
2023/08/27 02:01:19;;;;;;;5.85;2.97;;;16.40;99.90;;;;;;4900028;29;20141;-81
2023/08/27 02:03:44;;;;;;;11.07;3.08;;;16.50;99.90;;;;;;4901424;29;20033;-81
2023/08/27 02:06:10;;;;;;;4.38;2.38;;;16.40;99.90;;;;;;4900375;29;20026;-81
2023/08/27 02:08:35;;;;;;;5.00;2.70;;;16.50;99.90;;;;;;4902416;29;20051;-81
2023/08/27 02:11:01;;;;;;;7.95;2.50;;;16.40;99.90;;;;;;4898585;29;20034;-81
2023/08/27 02:13:27;;;;;;;4.57;2.50;;;16.40;99.90;;;;;;4900463;29;20044;-81
2023/08/27 02:15:53;;;;;;;6.53;3.28;;;16.40;99.90;;;;;;4899707;29;20032;-81
2023/08/27 02:18:18;;;;;;;3.58;2.60;;;16.40;99.90;;;;;;4899407;29;20031;-81
2023/08/27 02:20:44;;;;;;;8.05;2.50;;;16.40;99.90;;;;;;4898382;29;20106;-81
2023/08/27 02:23:10;;;;;;;10.25;3.25;;;16.50;99.90;;;;;;4900152;29;20040;-81
2023/08/27 02:25:35;;;;;;;5.45;3.00;;;16.40;99.90;;;;;;4899209;29;20029;-81
2023/08/27 02:28:01;;;;;;;3.67;2.58;;;16.50;99.90;;;;;;4898354;29;20040;-81
2023/08/27 02:30:26;;;;;;;7.03;3.20;;;16.50;99.90;;;;;;4899127;29;20047;-81
2023/08/27 02:32:52;;;;;;;6.00;3.13;;;16.40;99.90;;;;;;4899342;29;20033;-81
2023/08/27 02:35:17;;;;;;;5.40;2.85;;;16.40;99.90;;;;;;4898666;29;20040;-81
2023/08/27 02:37:43;;;;;;;3.92;2.45;;;16.40;99.90;;;;;;4898148;29;20040;-81
2023/08/27 02:40:09;;;;;;;3.83;2.70;;;16.40;99.90;;;;;;4899094;29;20128;-81
2023/08/27 02:42:36;;;;;;;5.78;2.95;;;16.40;99.90;;;;;;4900275;29;20499;-82
2023/08/27 02:45:02;;;;;;;5.65;3.00;;;16.40;99.90;;;;;;4897626;29;20040;-81
2023/08/27 02:47:27;;;;;;;6.85;2.90;;;16.40;99.90;;;;;;4898081;29;21573;-82
2023/08/27 02:49:53;;;;;;;6.72;3.00;;;16.50;99.90;;;;;;4897166;29;20621;-82
2023/08/27 02:52:19;;;;;;;6.53;3.05;;;16.40;99.90;;;;;;4898706;29;20024;-82
2023/08/27 02:54:44;;;;;;;4.55;2.75;;;16.40;99.90;;;;;;4900386;29;20040;-82
2023/08/27 02:57:10;;;;;;;7.38;2.78;;;16.40;99.90;;;;;;4897405;29;20025;-82
2023/08/27 02:59:35;;;;;;;4.80;2.85;;;16.40;99.90;;;;;;4897930;29;20579;-82
2023/08/27 03:02:01;;;;;;;5.35;2.75;;;16.40;99.90;;;;;;4897130;29;20039;-82
2023/08/27 03:04:26;;;;;;;3.88;2.75;;;16.40;99.90;;;;;;4897350;29;20133;-82
2023/08/27 03:06:52;;;;;;;3.88;3.00;;;16.30;99.90;;;;;;4895661;29;20028;-82
2023/08/27 03:09:17;;;;;;;6.03;3.33;;;16.30;99.90;;;;;;4893428;29;20041;-82
2023/08/27 03:11:43;;;;;;;4.47;2.75;;;16.30;99.90;;;;;;4900503;29;20381;-82
2023/08/27 03:14:09;;;;;;;7.35;2.72;;;16.30;99.90;;;;;;4900408;29;20028;-82
2023/08/27 03:16:34;;;;;;;4.35;2.88;;;16.30;99.90;;;;;;4900289;29;20035;-82
2023/08/27 03:19:00;;;;;;;10.00;2.92;;;16.30;99.90;;;;;;4898120;29;20032;-81
2023/08/27 03:21:25;;;;;;;7.43;2.80;;;16.30;99.90;;;;;;4899692;29;20024;-82
2023/08/27 03:23:51;;;;;;;8.70;3.95;;;16.30;99.90;;;;;;4901037;29;20129;-82
2023/08/27 03:26:16;;;;;;;5.90;3.10;;;16.30;99.90;;;;;;4903220;29;20147;-82
2023/08/27 03:28:42;;;;;;;4.50;3.30;;;16.30;99.90;;;;;;4899855;29;20032;-82
2023/08/27 03:31:08;;;;;;;6.03;3.17;;;16.30;99.90;;;;;;4899444;29;20020;-82
2023/08/27 03:33:33;;;;;;;5.80;3.28;;;16.30;99.90;;;;;;4899015;29;20034;-82
2023/08/27 03:36:00;;;;;;;5.50;3.20;;;16.30;99.90;;;;;;4900810;29;20036;-82
2023/08/27 03:38:25;;;;;;;9.15;3.42;;;16.30;99.90;;;;;;4899913;29;20036;-82
2023/08/27 03:40:52;;;;;;;4.90;2.90;;;16.30;99.90;;;;;;4900527;29;20033;-82
2023/08/27 03:43:18;;;;;;;6.00;3.30;;;16.30;99.90;;;;;;4901432;29;20033;-82
2023/08/27 03:45:43;;;;;;;5.38;3.00;;;16.30;99.90;;;;;;4902125;29;20456;-82
2023/08/27 03:48:09;;;;;;;6.15;2.97;;;16.30;99.90;;;;;;4899757;29;20127;-82
2023/08/27 03:50:36;;;;;;;4.40;2.90;;;16.30;99.90;;;;;;4899656;29;20055;-82
2023/08/27 03:53:02;;;;;;;4.60;2.70;;;16.30;99.90;;;;;;4900018;29;20062;-82
2023/08/27 03:55:28;;;;;;;7.10;3.17;;;16.30;99.90;;;;;;4903504;29;20032;-82
2023/08/27 03:57:53;;;;;;;7.40;3.20;;;16.30;99.90;;;;;;4902023;29;20024;-82
2023/08/27 04:00:19;;;;;;;6.93;3.15;;;16.20;99.90;;;;;;4902794;29;20024;-82
2023/08/27 04:02:45;;;;;;;4.20;3.03;;;16.30;99.90;;;;;;4901778;29;20032;-82
2023/08/27 04:05:11;;;;;;;6.70;3.03;;;16.30;99.90;;;;;;4898023;29;20146;-82
2023/08/27 04:07:36;;;;;;;5.18;3.30;;;16.20;99.90;;;;;;4894832;29;20040;-83
2023/08/27 04:10:04;;;;;;;6.55;3.08;;;16.30;99.90;;;;;;4899768;29;20102;-82
2023/08/27 04:12:33;;;;;;;5.70;3.20;;;16.20;99.90;;;;;;4895543;29;20040;-82
2023/08/27 04:14:58;;;;;;;8.13;3.10;;;16.30;99.90;;;;;;4895629;29;20504;-82
2023/08/27 04:17:24;;;;;;;5.03;2.83;;;16.30;99.90;;;;;;4895422;29;20120;-82
2023/08/27 04:19:50;;;;;;;6.30;3.00;;;16.30;99.90;;;;;;4900770;29;20084;-82
2023/08/27 04:22:15;;;;;;;4.85;2.53;;;16.30;99.90;;;;;;4900605;29;20063;-81
2023/08/27 04:24:43;;;;;;;5.07;2.53;;;16.30;99.90;;;;;;4904147;29;20032;-83
2023/08/27 04:27:10;;;;;;;5.50;2.78;;;16.30;99.90;;;;;;4904383;29;20034;-81
2023/08/27 04:29:36;;;;;;;6.70;2.95;;;16.30;99.90;;;;;;4900229;29;20090;-82
2023/08/27 04:32:02;;;;;;;5.25;2.63;;;16.30;99.90;;;;;;4901840;29;20107;-82
2023/08/27 04:34:28;;;;;;;4.00;2.70;;;16.30;99.90;;;;;;4904394;29;20115;-82
2023/08/27 04:36:55;;;;;;;5.80;2.85;;;16.30;99.90;;;;;;4904408;29;20024;-82
2023/08/27 04:39:21;;;;;;;6.43;2.78;;;16.30;99.90;;;;;;4904969;29;20147;-82
2023/08/27 04:41:47;;;;;;;4.80;2.63;;;16.30;99.90;;;;;;4901368;29;20076;-82
2023/08/27 04:44:13;;;;;;;8.00;3.22;;;16.30;99.90;;;;;;4903411;29;20111;-82
2023/08/27 04:46:38;;;;;;;6.20;2.80;;;16.30;99.90;;;;;;4902478;29;20172;-82
2023/08/27 04:49:04;;;;;;;3.72;2.50;;;16.30;99.90;;;;;;4901977;29;20178;-82
2023/08/27 04:51:29;;;;;;;6.22;3.20;;;16.30;99.90;;;;;;4902289;29;20477;-81
2023/08/27 04:53:55;;;;;;;7.65;2.85;;;16.30;99.90;;;;;;4901612;29;20032;-82
2023/08/27 04:56:21;;;;;;;4.55;2.67;;;16.30;99.90;;;;;;4900455;29;20085;-81
2023/08/27 04:58:46;;;;;;;5.78;3.00;;;16.30;99.90;;;;;;4901274;29;20044;-81
2023/08/27 05:01:12;;;;;;;5.35;2.88;;;16.30;99.90;;;;;;4899872;29;20598;-81
2023/08/27 05:03:38;;;;;;;5.80;2.85;;;16.30;99.90;;;;;;4902079;29;20161;-81
2023/08/27 05:06:04;;;;;;;4.28;2.72;;;16.30;99.90;;;;;;4900171;29;20037;-81
2023/08/27 05:08:30;;;;;;;6.00;2.97;;;16.40;99.90;;;;;;4901874;29;20041;-81
2023/08/27 05:10:55;;;;;;;6.00;2.90;;;16.40;99.90;;;;;;4900548;29;20039;-81
2023/08/27 05:13:21;;;;;;;8.60;3.30;;;16.40;99.90;;;;;;4899706;29;20609;-81
2023/08/27 05:15:46;;;;;;;5.55;3.10;;;16.40;99.90;;;;;;4901133;29;20029;-83
2023/08/27 05:18:13;;;;;;;6.38;3.40;;;16.40;99.90;;;;;;4901181;29;20055;-81
2023/08/27 05:20:39;;;;;;;5.85;3.42;;;16.40;99.90;;;;;;4901518;29;20104;-81
2023/08/27 05:23:04;;;;;;;5.93;3.30;;;16.40;99.90;;;;;;4902044;29;20570;-82
2023/08/27 05:25:30;;;;;;;5.82;3.35;;;16.40;99.90;;;;;;4901693;29;20025;-82
2023/08/27 05:27:56;;;;;;;5.70;3.53;;;16.40;99.90;;;;;;4899915;29;20078;-82
2023/08/27 05:30:22;;;;;;;7.65;3.08;;;16.40;99.90;;;;;;4900363;29;20118;-82
2023/08/27 05:32:47;;;;;;;5.60;2.90;;;16.40;99.90;;;;;;4900436;29;21364;-82
2023/08/27 05:35:13;;;;;;;4.38;2.88;;;16.40;99.90;;;;;;4899493;29;20032;-82
2023/08/27 05:37:39;;;;;;;5.97;2.90;;;16.30;99.90;;;;;;4899835;29;20028;-81
2023/08/27 05:40:06;;;;;;;5.32;3.70;;;16.40;99.90;;;;;;4898980;29;20040;-82
2023/08/27 05:42:32;;;;;;;5.03;3.03;;;16.40;99.90;;;;;;4898528;29;20091;-82
2023/08/27 05:44:58;;;;;;;6.15;3.10;;;16.40;99.90;;;;;;4897657;29;20040;-82
2023/08/27 05:47:24;;;;;;;4.80;2.80;;;16.40;99.90;;;;;;4900924;29;20047;-82
2023/08/27 05:49:49;;;;;;;5.20;2.80;;;16.40;99.90;;;;;;4899550;29;20483;-82
2023/08/27 05:52:15;;;;;;;5.88;3.10;;;16.40;99.90;;;;;;4899825;29;20115;-82
2023/08/27 05:54:40;;;;;;;5.10;2.85;;;16.40;99.90;;;;;;4898566;29;20032;-82
2023/08/27 05:57:06;;;;;;;4.40;3.13;;;16.40;99.90;;;;;;4898005;29;20543;-81
2023/08/27 05:59:32;;;;;;;5.07;2.80;;;16.40;99.90;;;;;;4897909;29;20048;-82
2023/08/27 06:01:58;;;;;;;3.85;2.72;;;16.40;99.90;;;;;;4901505;29;20044;-81
2023/08/27 06:04:24;;;;;;;4.20;2.90;;;16.50;99.90;;;;;;4897672;29;20056;-82
2023/08/27 06:06:49;;;;;;;4.38;2.95;;;16.50;99.90;;;;;;4897923;29;20032;-82
2023/08/27 06:09:16;;;;;;;4.00;2.97;;;16.50;99.90;;;;;;4897711;29;20044;-82
2023/08/27 06:11:42;;;;;;;5.82;3.30;;;16.50;99.90;;;;;;4897556;29;20051;-81
2023/08/27 06:14:07;;;;;;;4.65;2.40;;;16.50;99.90;;;;;;4897773;29;20124;-81
2023/08/27 06:16:33;;;;;;;5.00;2.80;;;16.50;99.90;;;;;;4897355;29;20039;-81
2023/08/27 11:59:33;;;;;;;2.90;1.40;;;17.00;99.90;;;;;;4841860;29;20142;-80
2023/08/27 12:03:09;;;;;;;2.80;1.20;;;17.00;99.90;;;;;;4784393;29;20046;-80
2023/08/27 12:08:37;;;;;;;2.10;1.40;;;16.90;99.90;;;;;;5097951;23;20170;-77
2023/08/27 12:11:04;;;;;;;2.42;1.42;;;16.90;99.90;;;;;;4888078;29;20122;-77
2023/08/27 12:13:29;;;;;;;4.18;1.40;;;16.90;99.90;;;;;;4884181;29;20743;-77
2023/08/27 12:15:56;;;;;;;1.77;1.20;;;16.90;99.90;;;;;;4879718;29;20029;-77
2023/08/27 12:18:21;;;;;;;1.55;1.08;;;16.80;99.90;;;;;;4883105;29;20050;-77
2023/08/27 12:20:50;;;;;;;2.03;1.20;;;16.80;99.90;;;;;;4882404;29;20033;-77
2023/08/27 12:23:16;;;;;;;1.67;1.00;;;16.80;99.90;;;;;;4881756;29;20032;-77
2023/08/27 12:25:49;;;;;;;1.50;1.00;;;16.80;99.90;;;;;;4882330;29;20108;-78
2023/08/27 12:28:16;;;;;;;4.80;1.08;;;16.70;99.90;;;;;;4883963;29;20036;-78
2023/08/27 12:30:46;;;;;;;2.05;1.02;;;16.70;99.90;;;;;;4883723;29;21732;-77
2023/08/27 12:33:12;;;;;;;2.67;0.93;;;16.70;99.90;;;;;;4882880;29;20047;-77
2023/08/27 12:35:37;;;;;;;3.70;1.05;;;16.60;99.90;;;;;;4881239;29;20040;-77
2023/08/27 12:38:04;;;;;;;2.95;1.00;;;16.60;99.90;;;;;;4880789;29;20032;-77
2023/08/27 12:40:29;;;;;;;1.88;1.00;;;16.60;99.90;;;;;;4881917;29;20055;-77
2023/08/27 12:42:55;;;;;;;2.03;1.17;;;16.50;99.90;;;;;;4882408;29;20028;-77
2023/08/27 12:45:21;;;;;;;2.55;1.10;;;16.50;99.90;;;;;;4880382;29;20111;-77
2023/08/27 12:47:46;;;;;;;2.97;1.20;;;16.50;99.90;;;;;;4881376;29;20159;-77
2023/08/27 12:50:13;;;;;;;2.28;0.90;;;16.50;99.90;;;;;;4882525;29;20543;-77
2023/08/27 12:52:38;;;;;;;3.22;1.60;;;16.50;99.90;;;;;;4883087;29;20032;-77
2023/08/27 12:55:04;;;;;;;1.80;1.00;;;16.50;99.90;;;;;;4879016;29;20087;-77
2023/08/27 12:57:30;;;;;;;2.85;1.00;;;16.40;99.90;;;;;;4884241;29;20025;-77
2023/08/27 12:59:55;;;;;;;2.83;1.00;;;16.40;99.90;;;;;;4881757;29;20044;-77
2023/08/27 13:02:21;;;;;;;3.28;1.20;;;16.40;99.90;;;;;;4879079;29;20071;-77
2023/08/27 13:04:46;;;;;;;1.73;1.10;;;16.40;99.90;;;;;;4885717;29;20201;-77
2023/08/27 13:07:12;;;;;;;2.60;0.90;;;16.40;99.90;;;;;;4879803;29;20666;-77
2023/08/27 13:09:38;;;;;;;5.10;1.60;;;16.40;99.90;;;;;;4881770;29;20100;-77
2023/08/27 13:12:04;;;;;;;2.22;1.20;;;16.40;99.90;;;;;;4881469;29;20043;-77
2023/08/27 13:14:29;;;;;;;3.97;1.42;;;16.30;99.90;;;;;;4881882;29;20029;-78
2023/08/27 13:16:55;;;;;;;3.53;1.17;;;16.30;99.90;;;;;;4880482;29;20052;-77
2023/08/27 13:19:20;;;;;;;2.65;1.13;;;16.30;99.90;;;;;;4881712;29;20694;-77
2023/08/27 13:21:46;;;;;;;2.60;1.20;;;16.30;99.90;;;;;;4884510;29;20025;-77
2023/08/27 13:24:12;;;;;;;2.85;1.20;;;16.30;99.90;;;;;;4883321;29;20381;-78
2023/08/27 13:26:37;;;;;;;2.50;1.38;;;16.30;99.90;;;;;;4879566;29;20035;-77
2023/08/27 13:29:04;;;;;;;2.63;1.30;;;16.30;99.90;;;;;;4880002;29;20034;-77
2023/08/27 13:31:30;;;;;;;4.45;1.40;;;16.30;99.90;;;;;;4881469;29;20155;-78
2023/08/27 13:33:55;;;;;;;4.15;1.20;;;16.30;99.90;;;;;;4881125;29;20089;-77
2023/08/27 13:36:21;;;;;;;2.33;1.00;;;16.30;99.90;;;;;;4880894;29;20024;-77
2023/08/27 13:38:47;;;;;;;2.20;1.20;;;16.40;99.90;;;;;;4884701;29;20116;-77
2023/08/27 13:41:13;;;;;;;2.45;1.13;;;16.40;99.90;;;;;;4887293;29;20028;-77
2023/08/27 13:43:38;;;;;;;2.03;1.15;;;16.40;99.90;;;;;;4881057;29;20040;-77
2023/08/27 13:46:04;;;;;;;2.47;1.40;;;16.50;99.90;;;;;;4881282;29;20028;-77
2023/08/27 13:48:29;;;;;;;2.28;1.20;;;16.50;99.90;;;;;;4882015;29;20052;-77
2023/08/27 13:50:55;;;;;;;2.17;1.35;;;16.60;99.90;;;;;;4881405;29;21441;-77
2023/08/27 13:53:22;;;;;;;1.95;1.15;;;16.70;99.90;;;;;;4880074;29;20061;-77
2023/08/27 13:55:47;;;;;;;2.13;1.42;;;16.80;99.90;;;;;;4877361;29;20115;-77
2023/08/27 13:58:13;;;;;;;2.67;1.65;;;16.80;99.90;;;;;;4880279;29;20025;-77
2023/08/27 14:00:38;;;;;;;2.08;1.50;;;16.80;99.90;;;;;;4880017;29;20155;-77
2023/08/27 14:03:04;;;;;;;1.83;1.33;;;16.90;99.90;;;;;;4880916;29;20032;-77
2023/08/27 14:05:30;;;;;;;1.55;1.00;;;16.90;99.90;;;;;;4879120;29;20028;-77
2023/08/27 14:07:55;;;;;;;3.08;1.58;;;17.00;99.90;;;;;;4879280;29;20064;-77
2023/08/27 14:10:21;;;;;;;2.17;1.30;;;17.10;99.90;;;;;;4879915;29;20154;-77
2023/08/27 14:12:48;;;;;;;2.08;1.08;;;17.20;99.90;;;;;;4881754;29;20027;-77
2023/08/27 14:15:14;;;;;;;1.70;1.20;;;17.30;99.90;;;;;;4879095;29;20135;-77
2023/08/27 14:17:40;;;;;;;2.15;1.00;;;17.40;99.90;;;;;;4879570;29;20075;-77
2023/08/27 14:20:06;;;;;;;1.13;0.90;;;17.40;99.90;;;;;;4877954;29;20411;-77
2023/08/27 14:22:31;;;;;;;1.80;1.27;;;17.50;99.90;;;;;;4880733;29;20063;-77
2023/08/27 14:24:57;;;;;;;0.80;0.80;;;17.50;99.90;;;;;;4878832;29;20036;-77
2023/08/27 14:27:23;;;;;;;1.42;0.75;;;17.50;99.90;;;;;;4881320;29;20867;-77
2023/08/27 14:29:48;;;;;;;3.47;1.00;;;17.50;99.90;;;;;;4879980;29;20543;-77
2023/08/27 14:32:14;;;;;;;2.47;0.93;;;17.50;99.90;;;;;;4878858;29;20087;-77
2023/08/27 14:34:39;;;;;;;1.33;1.10;;;17.50;99.90;;;;;;4884020;29;20779;-77
2023/08/27 14:37:05;;;;;;;2.00;1.08;;;17.50;99.90;;;;;;4887341;29;20051;-77
2023/08/27 14:39:31;;;;;;;1.63;0.80;;;17.50;99.90;;;;;;4888352;29;20064;-77
2023/08/27 14:41:56;;;;;;;1.50;0.95;;;17.40;99.90;;;;;;4888910;29;20492;-77
2023/08/27 14:44:22;;;;;;;2.25;1.00;;;17.30;99.90;;;;;;4888386;29;20040;-77
2023/08/27 14:46:48;;;;;;;1.30;0.90;;;17.30;99.90;;;;;;4889180;29;20033;-77
2023/08/27 14:49:21;;;;;;;1.17;1.00;;;17.30;99.90;;;;;;4888595;29;20400;-79
2023/08/27 14:51:49;;;;;;;1.35;0.90;;;17.20;99.90;;;;;;4888262;29;20056;-78
2023/08/27 14:54:15;;;;;;;2.30;1.10;;;17.20;99.90;;;;;;4882740;29;20028;-75
2023/08/27 15:07:32;;;;;;;0.98;0.80;;;16.90;99.90;;;;;;4814022;27;20052;-79
2023/08/27 15:10:05;;;;;;;1.25;0.90;;;16.80;99.90;;;;;;4896724;29;20052;-79
2023/08/27 15:20:36;;;;;;;2.47;1.00;;;16.90;99.90;;;;;;5437895;23;20108;-77
2023/08/27 15:23:19;;;;;;;1.17;0.90;;;16.80;99.90;;;;;;4895135;29;20056;-77
2023/08/27 15:31:38;;;;;;;;;;;;;;;;;;;;;
2023/08/27 15:40:07;;;;;;;1.33;0.90;;;16.80;99.90;;;;;;4895904;29;20044;-78
2023/08/27 15:50:17;;;;;;;5.13;3.00;;;16.70;99.90;;;;;;4912287;29;20056;-77
2023/08/27 15:52:46;;;;;;;7.97;4.55;;;16.70;99.90;;;;;;4917047;29;20892;-77
2023/08/27 15:55:16;;;;;;;13.73;9.48;;;16.70;99.90;;;;;;4917424;29;20036;-78
2023/08/27 15:57:45;;;;;;;14.77;10.63;;;16.60;99.90;;;;;;4917296;29;20063;-77
2023/08/27 16:18:07;;;;;;;2.30;1.70;;;16.50;99.90;;;;;;4919522;23;20047;-78
2023/08/27 16:20:33;;;;;;;2.33;1.60;;;16.50;99.90;;;;;;4913891;29;20522;-79
2023/08/27 16:22:58;;;;;;;2.85;1.55;;;16.50;99.90;;;;;;4914763;29;20032;-78
2023/08/27 16:25:24;;;;;;;3.53;1.80;;;16.40;99.90;;;;;;4914713;29;20035;-78
2023/08/27 16:27:50;;;;;;;1.92;1.00;;;16.40;99.90;;;;;;4914524;29;20032;-79
2023/08/27 16:30:15;;;;;;;2.97;1.27;;;16.50;99.90;;;;;;4915633;29;20073;-74
2023/08/27 16:32:41;;;;;;;4.60;1.02;;;16.50;99.90;;;;;;4914734;29;20198;-74
2023/08/27 16:35:07;;;;;;;1.80;1.05;;;16.50;99.90;;;;;;4912633;29;20397;-74
2023/08/27 16:37:33;;;;;;;1.50;1.00;;;16.40;99.90;;;;;;4911721;29;20043;-75
2023/08/27 16:39:58;;;;;;;2.60;1.10;;;16.40;99.90;;;;;;4913862;29;20040;-74
2023/08/27 16:42:25;;;;;;;4.85;1.00;;;16.40;99.90;;;;;;4915757;29;20143;-75
2023/08/27 16:44:50;;;;;;;2.25;1.20;;;16.40;99.90;;;;;;4915307;29;20066;-75
2023/08/27 16:47:16;;;;;;;1.30;1.10;;;16.40;99.90;;;;;;4913797;29;20142;-75
2023/08/27 16:49:41;;;;;;;3.00;1.00;;;16.40;99.90;;;;;;4916243;29;20491;-74
2023/08/27 16:52:08;;;;;;;2.20;1.13;;;16.40;99.90;;;;;;4915387;29;20036;-74
2023/08/27 16:54:34;;;;;;;1.40;1.10;;;16.40;99.90;;;;;;4915608;29;20070;-74
2023/08/27 16:56:59;;;;;;;1.80;1.10;;;16.40;99.90;;;;;;4916798;29;20787;-75
2023/08/27 16:59:25;;;;;;;2.05;1.20;;;16.40;99.90;;;;;;4917110;29;20028;-75
2023/08/27 17:01:50;;;;;;;2.83;1.10;;;16.40;99.90;;;;;;4917598;29;20099;-75
2023/08/27 17:04:16;;;;;;;1.77;1.27;;;16.30;99.90;;;;;;4914037;29;20139;-75
2023/08/27 17:06:41;;;;;;;1.38;1.02;;;16.30;99.90;;;;;;4914631;29;20150;-74
2023/08/27 17:09:07;;;;;;;1.60;1.10;;;16.30;99.90;;;;;;4915598;29;20042;-75
2023/08/27 17:11:32;;;;;;;4.13;1.20;;;16.20;99.90;;;;;;4914082;29;20036;-74
2023/08/27 17:13:59;;;;;;;1.13;1.00;;;16.20;99.90;;;;;;4914701;29;20055;-75
2023/08/27 17:16:25;;;;;;;1.70;1.10;;;16.20;99.90;;;;;;4914639;29;20036;-75
2023/08/27 17:18:51;;;;;;;3.85;1.65;;;16.20;99.90;;;;;;4915107;29;20047;-74
2023/08/27 17:21:16;;;;;;;1.67;1.20;;;16.20;99.90;;;;;;4914112;29;20056;-74
2023/08/27 17:23:42;;;;;;;2.28;1.23;;;16.20;99.90;;;;;;4915904;29;20056;-75
2023/08/27 17:26:07;;;;;;;2.75;1.40;;;16.20;99.90;;;;;;4915599;29;20477;-75
2023/08/27 17:28:33;;;;;;;2.63;1.10;;;16.10;99.90;;;;;;4914908;29;20418;-75
2023/08/27 17:30:58;;;;;;;3.13;1.27;;;16.10;99.90;;;;;;4915076;29;20051;-75
2023/08/27 17:33:24;;;;;;;3.13;1.38;;;16.10;99.90;;;;;;4914249;29;20083;-77
2023/08/27 17:35:50;;;;;;;3.28;1.20;;;16.10;99.90;;;;;;4913620;29;20023;-76
2023/08/27 17:38:16;;;;;;;2.20;1.40;;;16.00;99.90;;;;;;4913202;29;20146;-77
2023/08/27 17:40:41;;;;;;;3.53;1.40;;;16.00;99.90;;;;;;4912117;29;20035;-77
2023/08/27 17:43:07;;;;;;;2.33;1.17;;;16.00;99.90;;;;;;4913156;29;21441;-76
2023/08/27 17:45:35;;;;;;;1.85;1.30;;;15.90;99.90;;;;;;4912794;29;20036;-77
2023/08/27 17:48:05;;;;;;;1.67;1.27;;;15.90;99.90;;;;;;4913015;29;20542;-77
2023/08/27 17:50:31;;;;;;;5.75;2.40;;;15.90;99.90;;;;;;4913695;29;20024;-76
2023/08/27 17:52:57;;;;;;;1.60;1.30;;;15.90;99.90;;;;;;4915292;29;20067;-76
2023/08/27 17:55:22;;;;;;;2.45;1.30;;;15.80;99.90;;;;;;4915432;29;20042;-77
2023/08/27 17:57:48;;;;;;;4.70;1.60;;;15.70;99.90;;;;;;4915804;29;20495;-76
2023/08/27 18:00:14;;;;;;;2.65;1.50;;;15.70;99.90;;;;;;4914118;29;20067;-76
2023/08/27 18:02:39;;;;;;;3.65;2.05;;;15.60;99.90;;;;;;4914962;29;20076;-76
2023/08/27 18:05:05;;;;;;;3.13;1.40;;;15.60;99.90;;;;;;4914951;29;20039;-76
2023/08/27 18:07:30;;;;;;;3.00;1.50;;;15.60;99.90;;;;;;4914527;29;22398;-77
2023/08/27 18:09:56;;;;;;;2.40;1.35;;;15.60;99.90;;;;;;4914739;29;20039;-76
2023/08/27 18:12:21;;;;;;;1.70;1.20;;;15.50;99.90;;;;;;4915395;29;20048;-76
2023/08/27 18:14:47;;;;;;;4.03;1.92;;;15.50;99.90;;;;;;4914583;29;20038;-76
2023/08/27 18:17:13;;;;;;;2.90;1.58;;;15.50;99.90;;;;;;4914151;29;20032;-76
2023/08/27 18:19:38;;;;;;;2.25;1.40;;;15.50;99.90;;;;;;4913250;29;20122;-76
2023/08/27 18:22:04;;;;;;;3.13;1.40;;;15.50;99.90;;;;;;4914513;29;20035;-77
2023/08/27 18:24:30;;;;;;;2.50;1.52;;;15.40;99.90;;;;;;4914954;29;20653;-77
2023/08/27 18:26:56;;;;;;;3.22;1.70;;;15.50;99.90;;;;;;4913669;29;20620;-77
2023/08/27 18:29:22;;;;;;;2.40;1.42;;;15.40;99.90;;;;;;4914631;29;20040;-76
2023/08/27 18:31:47;;;;;;;3.50;2.08;;;15.50;99.90;;;;;;4912697;29;20092;-77
2023/08/27 18:34:13;;;;;;;3.70;1.42;;;15.40;99.90;;;;;;4912361;29;20051;-74
2023/08/27 18:39:19;;;;;;;2.75;1.50;;;15.40;99.90;;;;;;4933527;23;20174;-78
2023/08/27 18:41:46;;;;;;;4.05;1.95;;;15.40;99.90;;;;;;4929336;28;20046;-78
2023/08/27 18:44:18;;;;;;;4.25;1.90;;;15.30;99.90;;;;;;4929122;28;20031;-78
2023/08/27 18:47:12;;;;;;;2.38;1.70;;;15.30;99.90;;;;;;4917321;28;20043;-79
2023/08/27 18:49:39;;;;;;;2.92;1.73;;;15.30;99.90;;;;;;4910065;29;20050;-78
2023/08/27 18:52:34;;;;;;;3.90;1.80;;;15.30;99.90;;;;;;4909297;29;20090;-78
2023/08/27 19:01:03;;;;;;;3.40;1.42;;;15.30;99.90;;;;;;4894859;26;20055;-78
2023/08/27 19:03:30;;;;;;;2.72;1.20;;;15.30;99.90;;;;;;4914450;29;20119;-78
2023/08/27 19:06:30;;;;;;;2.53;1.50;;;15.30;99.90;;;;;;4915300;29;20048;-79
2023/08/27 19:09:00;;;;;;;2.50;1.65;;;15.20;99.90;;;;;;4913836;29;20039;-78
2023/08/27 19:11:27;;;;;;;3.22;1.77;;;15.30;99.90;;;;;;4912527;29;20032;-78
2023/08/27 19:14:00;;;;;;;5.00;2.35;;;15.20;99.90;;;;;;4915239;29;20499;-78
2023/08/27 19:16:26;;;;;;;2.22;1.23;;;15.20;99.90;;;;;;4913846;29;20038;-78
2023/08/27 19:19:05;;;;;;;3.80;1.52;;;15.20;99.90;;;;;;4913116;29;20158;-78
2023/08/27 19:21:37;;;;;;;4.03;1.63;;;15.20;99.90;;;;;;4913497;29;20049;-78
2023/08/27 19:24:26;;;;;;;2.38;1.40;;;15.20;99.90;;;;;;4912864;29;20040;-78
2023/08/27 19:26:54;;;;;;;2.38;1.48;;;15.20;99.90;;;;;;4920148;29;20036;-80
2023/08/27 19:29:23;;;;;;;3.00;1.48;;;15.10;99.90;;;;;;4922912;29;20506;-80
2023/08/27 19:31:50;;;;;;;2.80;1.50;;;15.10;99.90;;;;;;4924094;29;20034;-80
2023/08/27 19:34:17;;;;;;;3.08;1.20;;;15.10;99.90;;;;;;4923203;29;20043;-80